sensor_id;sensor_type;location;lat;lon;timestamp;P1;durP1;ratioP1;P2;durP2;ratioP2
75090;SDS011;63674;48.048;8.306;2023-05-13T00:00:29;10.05;;;4.43;;
75090;SDS011;63674;48.048;8.306;2023-05-13T00:02:57;8.77;;;5.00;;
75090;SDS011;63674;48.048;8.306;2023-05-13T00:05:26;10.85;;;5.55;;
75090;SDS011;63674;48.048;8.306;2023-05-13T00:07:54;11.40;;;5.57;;
75090;SDS011;63674;48.048;8.306;2023-05-13T00:10:27;9.98;;;5.40;;
75090;SDS011;63674;48.048;8.306;2023-05-13T00:12:56;8.63;;;4.88;;
75090;SDS011;63674;48.048;8.306;2023-05-13T00:15:24;9.10;;;4.50;;
75090;SDS011;63674;48.048;8.306;2023-05-13T00:17:54;12.38;;;4.50;;
75090;SDS011;63674;48.048;8.306;2023-05-13T00:20:23;12.63;;;5.60;;
75090;SDS011;63674;48.048;8.306;2023-05-13T00:22:52;10.20;;;5.88;;
75090;SDS011;63674;48.048;8.306;2023-05-13T00:25:21;11.15;;;6.03;;
75090;SDS011;63674;48.048;8.306;2023-05-13T00:27:49;10.83;;;6.00;;
75090;SDS011;63674;48.048;8.306;2023-05-13T00:30:18;9.93;;;5.78;;
75090;SDS011;63674;48.048;8.306;2023-05-13T00:32:47;11.07;;;6.03;;
75090;SDS011;63674;48.048;8.306;2023-05-13T00:35:17;11.38;;;6.30;;
75090;SDS011;63674;48.048;8.306;2023-05-13T00:37:46;11.90;;;6.20;;
75090;SDS011;63674;48.048;8.306;2023-05-13T00:40:16;14.37;;;6.57;;
75090;SDS011;63674;48.048;8.306;2023-05-13T00:42:48;10.18;;;5.75;;
75090;SDS011;63674;48.048;8.306;2023-05-13T00:45:17;11.02;;;6.13;;
75090;SDS011;63674;48.048;8.306;2023-05-13T00:47:47;11.30;;;6.40;;
75090;SDS011;63674;48.048;8.306;2023-05-13T00:50:17;10.73;;;5.95;;
75090;SDS011;63674;48.048;8.306;2023-05-13T00:52:47;10.63;;;6.07;;
75090;SDS011;63674;48.048;8.306;2023-05-13T00:55:17;11.48;;;5.63;;
75090;SDS011;63674;48.048;8.306;2023-05-13T00:57:46;10.20;;;5.95;;
75090;SDS011;63674;48.048;8.306;2023-05-13T01:00:14;10.25;;;5.95;;
75090;SDS011;63674;48.048;8.306;2023-05-13T01:02:47;9.48;;;5.57;;
75090;SDS011;63674;48.048;8.306;2023-05-13T01:05:25;10.33;;;5.40;;
75090;SDS011;63674;48.048;8.306;2023-05-13T01:08:06;9.57;;;5.70;;
75090;SDS011;63674;48.048;8.306;2023-05-13T01:10:45;11.20;;;5.47;;
75090;SDS011;63674;48.048;8.306;2023-05-13T01:13:18;11.48;;;6.13;;
75090;SDS011;63674;48.048;8.306;2023-05-13T01:16:12;10.07;;;5.38;;
75090;SDS011;63674;48.048;8.306;2023-05-13T01:18:50;10.27;;;5.50;;
75090;SDS011;63674;48.048;8.306;2023-05-13T01:21:25;11.10;;;5.45;;
75090;SDS011;63674;48.048;8.306;2023-05-13T01:23:57;11.55;;;5.90;;
75090;SDS011;63674;48.048;8.306;2023-05-13T01:26:26;13.27;;;5.40;;
75090;SDS011;63674;48.048;8.306;2023-05-13T01:28:55;10.10;;;5.72;;
75090;SDS011;63674;48.048;8.306;2023-05-13T01:31:24;10.53;;;4.83;;
75090;SDS011;63674;48.048;8.306;2023-05-13T01:33:52;9.50;;;5.30;;
75090;SDS011;63674;48.048;8.306;2023-05-13T01:36:21;9.98;;;5.10;;
75090;SDS011;63674;48.048;8.306;2023-05-13T01:38:52;8.93;;;4.88;;
75090;SDS011;63674;48.048;8.306;2023-05-13T01:41:23;9.98;;;5.40;;
75090;SDS011;63674;48.048;8.306;2023-05-13T01:43:51;10.23;;;5.37;;
75090;SDS011;63674;48.048;8.306;2023-05-13T01:46:20;11.60;;;5.65;;
75090;SDS011;63674;48.048;8.306;2023-05-13T01:48:49;10.50;;;5.50;;
75090;SDS011;63674;48.048;8.306;2023-05-13T01:51:17;8.88;;;5.05;;
75090;SDS011;63674;48.048;8.306;2023-05-13T01:53:47;12.00;;;5.35;;
75090;SDS011;63674;48.048;8.306;2023-05-13T01:56:15;8.20;;;5.10;;
75090;SDS011;63674;48.048;8.306;2023-05-13T01:58:44;9.00;;;4.90;;
75090;SDS011;63674;48.048;8.306;2023-05-13T02:01:13;12.57;;;5.18;;
75090;SDS011;63674;48.048;8.306;2023-05-13T02:03:41;10.40;;;5.30;;
75090;SDS011;63674;48.048;8.306;2023-05-13T02:06:10;9.60;;;5.40;;
75090;SDS011;63674;48.048;8.306;2023-05-13T02:08:39;9.83;;;5.17;;
75090;SDS011;63674;48.048;8.306;2023-05-13T02:11:09;10.40;;;5.38;;
75090;SDS011;63674;48.048;8.306;2023-05-13T02:13:37;10.75;;;5.15;;
75090;SDS011;63674;48.048;8.306;2023-05-13T02:16:06;10.85;;;5.75;;
75090;SDS011;63674;48.048;8.306;2023-05-13T02:18:34;9.73;;;5.28;;
75090;SDS011;63674;48.048;8.306;2023-05-13T02:21:03;8.73;;;5.27;;
75090;SDS011;63674;48.048;8.306;2023-05-13T02:23:31;9.85;;;5.55;;
75090;SDS011;63674;48.048;8.306;2023-05-13T02:26:00;12.30;;;5.70;;
75090;SDS011;63674;48.048;8.306;2023-05-13T02:28:30;11.38;;;5.55;;
75090;SDS011;63674;48.048;8.306;2023-05-13T02:30:59;9.48;;;5.55;;
75090;SDS011;63674;48.048;8.306;2023-05-13T02:33:27;9.47;;;5.33;;
75090;SDS011;63674;48.048;8.306;2023-05-13T02:35:56;11.25;;;5.20;;
75090;SDS011;63674;48.048;8.306;2023-05-13T02:38:24;10.32;;;5.40;;
75090;SDS011;63674;48.048;8.306;2023-05-13T02:40:53;10.32;;;5.88;;
75090;SDS011;63674;48.048;8.306;2023-05-13T02:43:22;8.98;;;5.20;;
75090;SDS011;63674;48.048;8.306;2023-05-13T02:45:54;9.33;;;5.00;;
75090;SDS011;63674;48.048;8.306;2023-05-13T02:48:23;8.80;;;5.10;;
75090;SDS011;63674;48.048;8.306;2023-05-13T02:50:51;9.95;;;5.28;;
75090;SDS011;63674;48.048;8.306;2023-05-13T02:53:20;11.15;;;5.40;;
75090;SDS011;63674;48.048;8.306;2023-05-13T02:55:48;9.77;;;4.80;;
75090;SDS011;63674;48.048;8.306;2023-05-13T02:58:17;9.73;;;5.27;;
75090;SDS011;63674;48.048;8.306;2023-05-13T03:00:46;11.52;;;5.90;;
75090;SDS011;63674;48.048;8.306;2023-05-13T03:03:15;9.35;;;5.45;;
75090;SDS011;63674;48.048;8.306;2023-05-13T03:05:44;10.38;;;5.72;;
75090;SDS011;63674;48.048;8.306;2023-05-13T03:08:13;9.82;;;5.80;;
75090;SDS011;63674;48.048;8.306;2023-05-13T03:10:42;11.03;;;5.63;;
75090;SDS011;63674;48.048;8.306;2023-05-13T03:13:10;9.88;;;5.70;;
75090;SDS011;63674;48.048;8.306;2023-05-13T03:15:39;11.48;;;5.50;;
75090;SDS011;63674;48.048;8.306;2023-05-13T03:18:09;10.88;;;5.50;;
75090;SDS011;63674;48.048;8.306;2023-05-13T03:20:40;10.43;;;5.97;;
75090;SDS011;63674;48.048;8.306;2023-05-13T03:23:08;9.73;;;5.90;;
75090;SDS011;63674;48.048;8.306;2023-05-13T03:25:37;9.38;;;5.40;;
75090;SDS011;63674;48.048;8.306;2023-05-13T03:28:05;9.77;;;5.50;;
75090;SDS011;63674;48.048;8.306;2023-05-13T03:30:35;9.80;;;5.90;;
75090;SDS011;63674;48.048;8.306;2023-05-13T03:33:04;12.45;;;6.10;;
75090;SDS011;63674;48.048;8.306;2023-05-13T03:35:32;10.60;;;5.67;;
75090;SDS011;63674;48.048;8.306;2023-05-13T03:38:02;12.30;;;5.55;;
75090;SDS011;63674;48.048;8.306;2023-05-13T03:40:31;10.65;;;5.28;;
75090;SDS011;63674;48.048;8.306;2023-05-13T03:42:59;10.55;;;5.18;;
75090;SDS011;63674;48.048;8.306;2023-05-13T03:45:28;9.93;;;5.65;;
75090;SDS011;63674;48.048;8.306;2023-05-13T03:47:57;9.70;;;5.43;;
75090;SDS011;63674;48.048;8.306;2023-05-13T03:50:25;10.30;;;5.40;;
75090;SDS011;63674;48.048;8.306;2023-05-13T03:52:54;12.00;;;5.60;;
75090;SDS011;63674;48.048;8.306;2023-05-13T03:55:24;11.93;;;5.93;;
75090;SDS011;63674;48.048;8.306;2023-05-13T03:57:53;8.63;;;5.45;;
75090;SDS011;63674;48.048;8.306;2023-05-13T04:00:21;9.23;;;5.30;;
75090;SDS011;63674;48.048;8.306;2023-05-13T04:02:50;8.90;;;5.20;;
75090;SDS011;63674;48.048;8.306;2023-05-13T04:05:18;9.60;;;5.50;;
75090;SDS011;63674;48.048;8.306;2023-05-13T04:07:47;10.43;;;5.85;;
75090;SDS011;63674;48.048;8.306;2023-05-13T04:10:16;11.98;;;6.30;;
75090;SDS011;63674;48.048;8.306;2023-05-13T04:12:46;11.77;;;5.90;;
75090;SDS011;63674;48.048;8.306;2023-05-13T04:15:15;12.50;;;6.00;;
75090;SDS011;63674;48.048;8.306;2023-05-13T04:17:43;13.10;;;6.07;;
75090;SDS011;63674;48.048;8.306;2023-05-13T04:20:12;11.63;;;6.13;;
75090;SDS011;63674;48.048;8.306;2023-05-13T04:22:41;10.60;;;6.30;;
75090;SDS011;63674;48.048;8.306;2023-05-13T04:25:09;10.80;;;6.20;;
75090;SDS011;63674;48.048;8.306;2023-05-13T04:27:38;11.88;;;6.53;;
75090;SDS011;63674;48.048;8.306;2023-05-13T04:30:08;11.07;;;6.40;;
75090;SDS011;63674;48.048;8.306;2023-05-13T04:32:37;13.82;;;6.63;;
75090;SDS011;63674;48.048;8.306;2023-05-13T04:35:07;10.88;;;6.13;;
75090;SDS011;63674;48.048;8.306;2023-05-13T04:37:36;14.37;;;6.93;;
75090;SDS011;63674;48.048;8.306;2023-05-13T04:40:05;12.23;;;6.45;;
75090;SDS011;63674;48.048;8.306;2023-05-13T04:42:34;12.27;;;7.13;;
75090;SDS011;63674;48.048;8.306;2023-05-13T04:45:03;11.30;;;6.70;;
75090;SDS011;63674;48.048;8.306;2023-05-13T04:47:34;12.40;;;6.80;;
75090;SDS011;63674;48.048;8.306;2023-05-13T04:50:04;11.83;;;7.03;;
75090;SDS011;63674;48.048;8.306;2023-05-13T04:52:34;13.07;;;7.55;;
75090;SDS011;63674;48.048;8.306;2023-05-13T04:55:03;12.20;;;6.88;;
75090;SDS011;63674;48.048;8.306;2023-05-13T04:57:32;12.85;;;6.97;;
75090;SDS011;63674;48.048;8.306;2023-05-13T05:00:00;12.02;;;7.18;;
75090;SDS011;63674;48.048;8.306;2023-05-13T05:02:30;10.63;;;6.47;;
75090;SDS011;63674;48.048;8.306;2023-05-13T05:05:01;12.00;;;7.00;;
75090;SDS011;63674;48.048;8.306;2023-05-13T05:07:30;13.57;;;8.05;;
75090;SDS011;63674;48.048;8.306;2023-05-13T05:09:59;12.48;;;7.05;;
75090;SDS011;63674;48.048;8.306;2023-05-13T05:12:28;11.75;;;6.95;;
75090;SDS011;63674;48.048;8.306;2023-05-13T05:14:57;12.10;;;7.50;;
75090;SDS011;63674;48.048;8.306;2023-05-13T05:17:26;11.73;;;6.90;;
75090;SDS011;63674;48.048;8.306;2023-05-13T05:19:58;13.52;;;7.10;;
75090;SDS011;63674;48.048;8.306;2023-05-13T05:22:28;12.60;;;6.32;;
75090;SDS011;63674;48.048;8.306;2023-05-13T05:24:56;13.65;;;6.72;;
75090;SDS011;63674;48.048;8.306;2023-05-13T05:27:25;11.70;;;7.13;;
75090;SDS011;63674;48.048;8.306;2023-05-13T05:29:53;13.70;;;7.05;;
75090;SDS011;63674;48.048;8.306;2023-05-13T05:32:22;11.82;;;6.35;;
75090;SDS011;63674;48.048;8.306;2023-05-13T05:34:51;10.55;;;6.05;;
75090;SDS011;63674;48.048;8.306;2023-05-13T05:37:20;10.82;;;5.68;;
75090;SDS011;63674;48.048;8.306;2023-05-13T05:39:50;10.60;;;6.30;;
75090;SDS011;63674;48.048;8.306;2023-05-13T05:42:18;9.52;;;5.78;;
75090;SDS011;63674;48.048;8.306;2023-05-13T05:44:47;10.25;;;5.93;;
75090;SDS011;63674;48.048;8.306;2023-05-13T05:47:15;8.82;;;5.03;;
75090;SDS011;63674;48.048;8.306;2023-05-13T05:49:44;10.52;;;5.72;;
75090;SDS011;63674;48.048;8.306;2023-05-13T05:52:12;9.37;;;5.40;;
75090;SDS011;63674;48.048;8.306;2023-05-13T05:54:41;8.82;;;5.13;;
75090;SDS011;63674;48.048;8.306;2023-05-13T05:57:11;9.00;;;5.20;;
75090;SDS011;63674;48.048;8.306;2023-05-13T05:59:39;8.80;;;5.00;;
75090;SDS011;63674;48.048;8.306;2023-05-13T06:02:08;8.23;;;4.78;;
75090;SDS011;63674;48.048;8.306;2023-05-13T06:04:36;8.87;;;4.73;;
75090;SDS011;63674;48.048;8.306;2023-05-13T06:07:07;9.07;;;5.10;;
75090;SDS011;63674;48.048;8.306;2023-05-13T06:09:36;8.20;;;4.93;;
75090;SDS011;63674;48.048;8.306;2023-05-13T06:12:04;8.15;;;4.63;;
75090;SDS011;63674;48.048;8.306;2023-05-13T06:14:35;8.30;;;4.85;;
75090;SDS011;63674;48.048;8.306;2023-05-13T06:17:03;8.70;;;4.97;;
75090;SDS011;63674;48.048;8.306;2023-05-13T06:19:32;11.27;;;5.45;;
75090;SDS011;63674;48.048;8.306;2023-05-13T06:22:01;8.85;;;4.95;;
75090;SDS011;63674;48.048;8.306;2023-05-13T06:24:29;10.82;;;5.18;;
75090;SDS011;63674;48.048;8.306;2023-05-13T06:26:58;8.15;;;4.70;;
75090;SDS011;63674;48.048;8.306;2023-05-13T06:29:27;9.30;;;4.40;;
75090;SDS011;63674;48.048;8.306;2023-05-13T06:31:57;7.75;;;4.25;;
75090;SDS011;63674;48.048;8.306;2023-05-13T06:34:26;8.30;;;4.30;;
75090;SDS011;63674;48.048;8.306;2023-05-13T06:36:54;8.15;;;4.43;;
75090;SDS011;63674;48.048;8.306;2023-05-13T06:39:23;8.13;;;4.55;;
75090;SDS011;63674;48.048;8.306;2023-05-13T06:41:51;8.17;;;4.33;;
75090;SDS011;63674;48.048;8.306;2023-05-13T06:44:20;7.80;;;4.25;;
75090;SDS011;63674;48.048;8.306;2023-05-13T06:46:48;7.35;;;3.80;;
75090;SDS011;63674;48.048;8.306;2023-05-13T06:49:18;7.25;;;4.10;;
75090;SDS011;63674;48.048;8.306;2023-05-13T06:51:47;8.55;;;3.88;;
75090;SDS011;63674;48.048;8.306;2023-05-13T06:54:15;6.17;;;2.93;;
75090;SDS011;63674;48.048;8.306;2023-05-13T06:56:44;6.25;;;3.03;;
75090;SDS011;63674;48.048;8.306;2023-05-13T06:59:12;5.95;;;2.95;;
75090;SDS011;63674;48.048;8.306;2023-05-13T07:01:42;5.22;;;2.28;;
75090;SDS011;63674;48.048;8.306;2023-05-13T07:04:10;5.47;;;2.50;;
75090;SDS011;63674;48.048;8.306;2023-05-13T07:06:40;5.20;;;2.23;;
75090;SDS011;63674;48.048;8.306;2023-05-13T07:09:09;5.88;;;1.95;;
75090;SDS011;63674;48.048;8.306;2023-05-13T07:11:37;5.25;;;2.30;;
75090;SDS011;63674;48.048;8.306;2023-05-13T07:14:06;5.47;;;2.20;;
75090;SDS011;63674;48.048;8.306;2023-05-13T07:16:34;5.22;;;2.30;;
75090;SDS011;63674;48.048;8.306;2023-05-13T07:19:03;5.13;;;2.20;;
75090;SDS011;63674;48.048;8.306;2023-05-13T07:21:31;4.60;;;1.83;;
75090;SDS011;63674;48.048;8.306;2023-05-13T07:24:02;4.85;;;2.35;;
75090;SDS011;63674;48.048;8.306;2023-05-13T07:26:30;4.70;;;2.00;;
75090;SDS011;63674;48.048;8.306;2023-05-13T07:29:00;4.88;;;2.30;;
75090;SDS011;63674;48.048;8.306;2023-05-13T07:31:29;5.20;;;2.33;;
75090;SDS011;63674;48.048;8.306;2023-05-13T07:33:57;6.63;;;3.30;;
75090;SDS011;63674;48.048;8.306;2023-05-13T07:36:26;5.97;;;2.90;;
75090;SDS011;63674;48.048;8.306;2023-05-13T07:38:54;5.40;;;2.75;;
75090;SDS011;63674;48.048;8.306;2023-05-13T07:41:24;5.80;;;3.15;;
75090;SDS011;63674;48.048;8.306;2023-05-13T07:43:53;6.60;;;3.50;;
75090;SDS011;63674;48.048;8.306;2023-05-13T07:46:21;6.18;;;3.45;;
75090;SDS011;63674;48.048;8.306;2023-05-13T07:48:50;8.30;;;4.10;;
75090;SDS011;63674;48.048;8.306;2023-05-13T07:51:19;6.75;;;4.07;;
75090;SDS011;63674;48.048;8.306;2023-05-13T07:53:47;8.60;;;4.60;;
75090;SDS011;63674;48.048;8.306;2023-05-13T07:56:16;8.43;;;4.40;;
75090;SDS011;63674;48.048;8.306;2023-05-13T07:58:46;8.23;;;4.43;;
75090;SDS011;63674;48.048;8.306;2023-05-13T08:01:15;8.50;;;4.82;;
75090;SDS011;63674;48.048;8.306;2023-05-13T08:03:44;9.32;;;5.30;;
75090;SDS011;63674;48.048;8.306;2023-05-13T08:06:13;8.32;;;5.30;;
75090;SDS011;63674;48.048;8.306;2023-05-13T08:08:41;9.43;;;5.60;;
75090;SDS011;63674;48.048;8.306;2023-05-13T08:11:10;9.02;;;5.53;;
75090;SDS011;63674;48.048;8.306;2023-05-13T08:13:40;10.68;;;5.78;;
75090;SDS011;63674;48.048;8.306;2023-05-13T08:16:10;11.55;;;6.13;;
75090;SDS011;63674;48.048;8.306;2023-05-13T08:18:39;10.75;;;5.70;;
75090;SDS011;63674;48.048;8.306;2023-05-13T08:21:07;10.90;;;6.27;;
75090;SDS011;63674;48.048;8.306;2023-05-13T08:23:36;12.32;;;6.07;;
75090;SDS011;63674;48.048;8.306;2023-05-13T08:26:11;11.63;;;6.97;;
75090;SDS011;63674;48.048;8.306;2023-05-13T08:28:40;9.50;;;5.93;;
75090;SDS011;63674;48.048;8.306;2023-05-13T08:31:11;13.07;;;6.40;;
75090;SDS011;63674;48.048;8.306;2023-05-13T08:33:40;10.07;;;6.07;;
75090;SDS011;63674;48.048;8.306;2023-05-13T08:36:11;13.35;;;7.40;;
75090;SDS011;63674;48.048;8.306;2023-05-13T08:38:40;11.13;;;6.03;;
75090;SDS011;63674;48.048;8.306;2023-05-13T08:41:09;14.75;;;6.95;;
75090;SDS011;63674;48.048;8.306;2023-05-13T08:43:40;9.60;;;5.80;;
75090;SDS011;63674;48.048;8.306;2023-05-13T08:46:11;9.30;;;5.57;;
75090;SDS011;63674;48.048;8.306;2023-05-13T08:48:42;8.60;;;5.35;;
75090;SDS011;63674;48.048;8.306;2023-05-13T08:51:10;9.23;;;5.15;;
75090;SDS011;63674;48.048;8.306;2023-05-13T08:53:39;8.75;;;5.43;;
75090;SDS011;63674;48.048;8.306;2023-05-13T08:56:09;9.68;;;5.68;;
75090;SDS011;63674;48.048;8.306;2023-05-13T08:58:38;9.63;;;5.03;;
75090;SDS011;63674;48.048;8.306;2023-05-13T09:01:07;8.23;;;4.85;;
75090;SDS011;63674;48.048;8.306;2023-05-13T09:03:38;8.38;;;4.50;;
75090;SDS011;63674;48.048;8.306;2023-05-13T09:06:19;8.00;;;4.80;;
75090;SDS011;63674;48.048;8.306;2023-05-13T09:08:48;9.15;;;5.75;;
75090;SDS011;63674;48.048;8.306;2023-05-13T09:11:17;9.40;;;4.87;;
75090;SDS011;63674;48.048;8.306;2023-05-13T09:13:54;11.98;;;7.82;;
75090;SDS011;63674;48.048;8.306;2023-05-13T09:16:26;12.75;;;9.00;;
75090;SDS011;63674;48.048;8.306;2023-05-13T09:18:58;8.45;;;5.18;;
75090;SDS011;63674;48.048;8.306;2023-05-13T09:21:28;7.55;;;4.50;;
75090;SDS011;63674;48.048;8.306;2023-05-13T09:24:04;8.47;;;4.57;;
75090;SDS011;63674;48.048;8.306;2023-05-13T09:26:37;7.90;;;4.40;;
75090;SDS011;63674;48.048;8.306;2023-05-13T09:29:16;8.05;;;4.93;;
75090;SDS011;63674;48.048;8.306;2023-05-13T09:31:50;39.30;;;20.20;;
75090;SDS011;63674;48.048;8.306;2023-05-13T09:34:26;60.13;;;28.15;;
75090;SDS011;63674;48.048;8.306;2023-05-13T09:36:57;16.47;;;9.17;;
75090;SDS011;63674;48.048;8.306;2023-05-13T09:39:30;21.70;;;11.40;;
75090;SDS011;63674;48.048;8.306;2023-05-13T09:42:00;7.93;;;5.13;;
75090;SDS011;63674;48.048;8.306;2023-05-13T09:44:31;7.25;;;4.25;;
75090;SDS011;63674;48.048;8.306;2023-05-13T09:47:00;7.40;;;4.40;;
75090;SDS011;63674;48.048;8.306;2023-05-13T09:49:30;6.80;;;4.17;;
75090;SDS011;63674;48.048;8.306;2023-05-13T09:51:59;9.35;;;4.78;;
75090;SDS011;63674;48.048;8.306;2023-05-13T09:54:32;7.80;;;4.07;;
75090;SDS011;63674;48.048;8.306;2023-05-13T09:57:02;7.43;;;3.85;;
75090;SDS011;63674;48.048;8.306;2023-05-13T09:59:32;7.75;;;4.78;;
75090;SDS011;63674;48.048;8.306;2023-05-13T10:02:03;7.03;;;4.50;;
75090;SDS011;63674;48.048;8.306;2023-05-13T10:04:35;8.25;;;4.40;;
75090;SDS011;63674;48.048;8.306;2023-05-13T10:07:04;7.72;;;4.78;;
75090;SDS011;63674;48.048;8.306;2023-05-13T10:09:33;8.18;;;4.50;;
75090;SDS011;63674;48.048;8.306;2023-05-13T10:12:04;7.50;;;4.35;;
75090;SDS011;63674;48.048;8.306;2023-05-13T10:14:35;7.50;;;4.77;;
75090;SDS011;63674;48.048;8.306;2023-05-13T10:17:05;7.18;;;4.43;;
75090;SDS011;63674;48.048;8.306;2023-05-13T10:19:37;7.93;;;4.40;;
75090;SDS011;63674;48.048;8.306;2023-05-13T10:22:06;7.95;;;4.18;;
75090;SDS011;63674;48.048;8.306;2023-05-13T10:24:35;8.35;;;4.28;;
75090;SDS011;63674;48.048;8.306;2023-05-13T10:27:05;6.30;;;3.70;;
75090;SDS011;63674;48.048;8.306;2023-05-13T10:29:34;6.75;;;3.70;;
75090;SDS011;63674;48.048;8.306;2023-05-13T10:32:06;8.38;;;4.60;;
75090;SDS011;63674;48.048;8.306;2023-05-13T10:34:37;9.27;;;4.80;;
75090;SDS011;63674;48.048;8.306;2023-05-13T10:37:12;7.28;;;4.45;;
75090;SDS011;63674;48.048;8.306;2023-05-13T10:40:13;7.33;;;4.30;;
75090;SDS011;63674;48.048;8.306;2023-05-13T10:43:09;9.35;;;6.32;;
75090;SDS011;63674;48.048;8.306;2023-05-13T10:45:43;8.68;;;4.50;;
75090;SDS011;63674;48.048;8.306;2023-05-13T10:48:13;7.57;;;4.10;;
75090;SDS011;63674;48.048;8.306;2023-05-13T10:50:50;8.75;;;4.80;;
75090;SDS011;63674;48.048;8.306;2023-05-13T10:53:22;10.93;;;4.33;;
75090;SDS011;63674;48.048;8.306;2023-05-13T10:55:53;13.57;;;6.78;;
75090;SDS011;63674;48.048;8.306;2023-05-13T10:58:29;7.85;;;4.57;;
75090;SDS011;63674;48.048;8.306;2023-05-13T11:01:12;7.65;;;4.05;;
75090;SDS011;63674;48.048;8.306;2023-05-13T11:03:50;7.03;;;4.03;;
75090;SDS011;63674;48.048;8.306;2023-05-13T11:06:22;8.53;;;4.20;;
75090;SDS011;63674;48.048;8.306;2023-05-13T11:08:56;6.50;;;3.92;;
75090;SDS011;63674;48.048;8.306;2023-05-13T11:11:26;6.75;;;3.78;;
75090;SDS011;63674;48.048;8.306;2023-05-13T11:14:02;5.90;;;3.55;;
75090;SDS011;63674;48.048;8.306;2023-05-13T11:16:44;7.75;;;5.00;;
75090;SDS011;63674;48.048;8.306;2023-05-13T11:19:18;11.37;;;8.20;;
75090;SDS011;63674;48.048;8.306;2023-05-13T11:21:51;6.95;;;4.15;;
75090;SDS011;63674;48.048;8.306;2023-05-13T11:24:21;8.27;;;4.40;;
75090;SDS011;63674;48.048;8.306;2023-05-13T11:26:52;9.35;;;6.72;;
75090;SDS011;63674;48.048;8.306;2023-05-13T11:29:27;7.15;;;4.20;;
75090;SDS011;63674;48.048;8.306;2023-05-13T11:32:00;6.90;;;3.70;;
75090;SDS011;63674;48.048;8.306;2023-05-13T11:34:31;7.72;;;4.32;;
75090;SDS011;63674;48.048;8.306;2023-05-13T11:37:07;6.68;;;3.78;;
75090;SDS011;63674;48.048;8.306;2023-05-13T11:39:37;9.18;;;4.60;;
75090;SDS011;63674;48.048;8.306;2023-05-13T11:42:08;7.45;;;4.20;;
75090;SDS011;63674;48.048;8.306;2023-05-13T11:44:43;7.43;;;4.50;;
75090;SDS011;63674;48.048;8.306;2023-05-13T11:47:13;7.22;;;4.32;;
75090;SDS011;63674;48.048;8.306;2023-05-13T11:49:42;7.00;;;4.35;;
75090;SDS011;63674;48.048;8.306;2023-05-13T11:52:14;7.80;;;4.40;;
75090;SDS011;63674;48.048;8.306;2023-05-13T11:54:45;8.45;;;4.88;;
75090;SDS011;63674;48.048;8.306;2023-05-13T11:57:19;8.83;;;4.30;;
75090;SDS011;63674;48.048;8.306;2023-05-13T11:59:53;9.10;;;5.75;;
75090;SDS011;63674;48.048;8.306;2023-05-13T12:02:25;7.60;;;4.80;;
75090;SDS011;63674;48.048;8.306;2023-05-13T12:04:55;9.15;;;5.13;;
75090;SDS011;63674;48.048;8.306;2023-05-13T12:07:32;9.15;;;5.70;;
75090;SDS011;63674;48.048;8.306;2023-05-13T12:10:02;10.37;;;5.90;;
75090;SDS011;63674;48.048;8.306;2023-05-13T12:12:33;9.30;;;5.80;;
75090;SDS011;63674;48.048;8.306;2023-05-13T12:15:08;9.48;;;6.10;;
75090;SDS011;63674;48.048;8.306;2023-05-13T12:17:39;17.15;;;8.32;;
75090;SDS011;63674;48.048;8.306;2023-05-13T12:20:09;10.95;;;6.68;;
75090;SDS011;63674;48.048;8.306;2023-05-13T12:22:51;11.10;;;6.60;;
75090;SDS011;63674;48.048;8.306;2023-05-13T12:28:17;12.52;;;6.28;;
75090;SDS011;63674;48.048;8.306;2023-05-13T12:30:50;9.75;;;6.10;;
75090;SDS011;63674;48.048;8.306;2023-05-13T12:33:22;12.25;;;6.45;;
75090;SDS011;63674;48.048;8.306;2023-05-13T12:35:53;10.63;;;5.30;;
75090;SDS011;63674;48.048;8.306;2023-05-13T12:38:53;11.18;;;5.35;;
75090;SDS011;63674;48.048;8.306;2023-05-13T12:41:26;11.35;;;5.00;;
75090;SDS011;63674;48.048;8.306;2023-05-13T12:43:56;10.05;;;5.47;;
75090;SDS011;63674;48.048;8.306;2023-05-13T12:46:27;8.70;;;5.20;;
75090;SDS011;63674;48.048;8.306;2023-05-13T12:48:56;9.67;;;5.30;;
75090;SDS011;63674;48.048;8.306;2023-05-13T12:51:27;9.68;;;5.40;;
75090;SDS011;63674;48.048;8.306;2023-05-13T12:53:58;9.18;;;5.13;;
75090;SDS011;63674;48.048;8.306;2023-05-13T12:56:27;11.57;;;5.72;;
75090;SDS011;63674;48.048;8.306;2023-05-13T12:58:56;8.75;;;5.25;;
75090;SDS011;63674;48.048;8.306;2023-05-13T13:01:24;8.23;;;4.80;;
75090;SDS011;63674;48.048;8.306;2023-05-13T13:03:53;8.32;;;4.57;;
75090;SDS011;63674;48.048;8.306;2023-05-13T13:06:22;9.02;;;5.03;;
75090;SDS011;63674;48.048;8.306;2023-05-13T13:08:51;9.38;;;5.68;;
75090;SDS011;63674;48.048;8.306;2023-05-13T13:11:21;10.43;;;5.25;;
75090;SDS011;63674;48.048;8.306;2023-05-13T13:13:49;8.17;;;4.97;;
75090;SDS011;63674;48.048;8.306;2023-05-13T13:16:18;9.50;;;4.93;;
75090;SDS011;63674;48.048;8.306;2023-05-13T13:18:47;9.40;;;5.20;;
75090;SDS011;63674;48.048;8.306;2023-05-13T13:21:20;9.52;;;5.30;;
75090;SDS011;63674;48.048;8.306;2023-05-13T13:23:49;10.10;;;4.97;;
75090;SDS011;63674;48.048;8.306;2023-05-13T13:26:17;9.37;;;4.67;;
75090;SDS011;63674;48.048;8.306;2023-05-13T13:28:48;9.65;;;5.00;;
75090;SDS011;63674;48.048;8.306;2023-05-13T13:31:16;8.15;;;4.97;;
75090;SDS011;63674;48.048;8.306;2023-05-13T13:33:45;8.85;;;5.07;;
75090;SDS011;63674;48.048;8.306;2023-05-13T13:36:14;8.18;;;4.80;;
75090;SDS011;63674;48.048;8.306;2023-05-13T13:38:42;9.57;;;5.00;;
75090;SDS011;63674;48.048;8.306;2023-05-13T13:41:11;8.60;;;5.18;;
75090;SDS011;63674;48.048;8.306;2023-05-13T13:43:40;9.68;;;5.82;;
75090;SDS011;63674;48.048;8.306;2023-05-13T13:46:09;9.38;;;5.32;;
75090;SDS011;63674;48.048;8.306;2023-05-13T13:48:38;9.60;;;5.47;;
75090;SDS011;63674;48.048;8.306;2023-05-13T13:51:06;9.33;;;5.43;;
75090;SDS011;63674;48.048;8.306;2023-05-13T13:53:35;9.55;;;5.68;;
75090;SDS011;63674;48.048;8.306;2023-05-13T13:56:04;10.63;;;5.78;;
75090;SDS011;63674;48.048;8.306;2023-05-13T13:58:33;9.65;;;5.55;;
75090;SDS011;63674;48.048;8.306;2023-05-13T14:01:02;10.65;;;5.95;;
75090;SDS011;63674;48.048;8.306;2023-05-13T14:03:32;10.57;;;5.30;;
75090;SDS011;63674;48.048;8.306;2023-05-13T14:06:01;9.52;;;5.30;;
75090;SDS011;63674;48.048;8.306;2023-05-13T14:08:30;16.33;;;7.03;;
75090;SDS011;63674;48.048;8.306;2023-05-13T14:10:59;10.80;;;5.93;;
75090;SDS011;63674;48.048;8.306;2023-05-13T14:13:27;11.27;;;6.55;;
75090;SDS011;63674;48.048;8.306;2023-05-13T14:15:56;11.50;;;6.43;;
75090;SDS011;63674;48.048;8.306;2023-05-13T14:18:24;13.98;;;6.43;;
75090;SDS011;63674;48.048;8.306;2023-05-13T14:20:54;11.77;;;5.90;;
75090;SDS011;63674;48.048;8.306;2023-05-13T14:23:23;11.18;;;5.88;;
75090;SDS011;63674;48.048;8.306;2023-05-13T14:25:51;12.40;;;6.35;;
75090;SDS011;63674;48.048;8.306;2023-05-13T14:28:20;10.23;;;6.23;;
75090;SDS011;63674;48.048;8.306;2023-05-13T14:30:50;11.05;;;5.82;;
75090;SDS011;63674;48.048;8.306;2023-05-13T14:33:18;11.23;;;6.47;;
75090;SDS011;63674;48.048;8.306;2023-05-13T14:35:47;12.02;;;6.30;;
75090;SDS011;63674;48.048;8.306;2023-05-13T14:38:17;21.10;;;11.63;;
75090;SDS011;63674;48.048;8.306;2023-05-13T14:40:46;13.47;;;7.33;;
75090;SDS011;63674;48.048;8.306;2023-05-13T14:43:14;11.93;;;6.63;;
75090;SDS011;63674;48.048;8.306;2023-05-13T14:45:43;12.50;;;6.40;;
75090;SDS011;63674;48.048;8.306;2023-05-13T14:48:12;12.55;;;5.93;;
75090;SDS011;63674;48.048;8.306;2023-05-13T14:50:41;12.23;;;6.57;;
75090;SDS011;63674;48.048;8.306;2023-05-13T14:53:10;12.13;;;6.20;;
75090;SDS011;63674;48.048;8.306;2023-05-13T14:55:41;12.57;;;6.90;;
75090;SDS011;63674;48.048;8.306;2023-05-13T14:58:09;11.45;;;6.40;;
75090;SDS011;63674;48.048;8.306;2023-05-13T15:00:38;12.25;;;6.45;;